Time,TemperatureF,DewpointF,PressureIn,WindDirection,WindDirectionDegrees,WindSpeedMPH,WindSpeedGustMPH,Humidity,HourlyPrecipIn,Conditions,Clouds,dailyrainin,SoftwareType,DateUTC
2013-04-25 00:04:00,43.5,34.4,30.08,NE,45,0.0,0.0,70,0.00,,CLR,0.00,VWS V14.01,2013-04-25 07:04:00,
2013-04-25 00:09:00,43.5,34.4,30.08,NE,45,0.0,0.0,70,0.00,,CLR,0.00,VWS V14.01,2013-04-25 07:09:00,
2013-04-25 00:14:00,43.5,34.4,30.08,NE,45,0.0,0.0,70,0.00,,CLR,0.00,VWS V14.01,2013-04-25 07:14:00,
2013-04-25 00:19:00,43.3,34.5,30.08,NE,45,0.0,0.0,71,0.00,,CLR,0.00,VWS V14.01,2013-04-25 07:19:00,
2013-04-25 00:25:00,43.1,34.3,30.08,NE,45,0.0,0.0,71,0.00,,CLR,0.00,VWS V14.01,2013-04-25 07:25:00,
2013-04-25 00:30:00,42.9,34.5,30.08,NE,45,0.0,0.0,72,0.00,,CLR,0.00,VWS V14.01,2013-04-25 07:30:00,
2013-04-25 00:35:00,42.9,34.5,30.08,NE,45,0.0,0.0,72,0.00,,CLR,0.00,VWS V14.01,2013-04-25 07:35:00,
2013-04-25 00:40:00,42.9,34.5,30.08,NE,45,0.0,0.0,72,0.00,,CLR,0.00,VWS V14.01,2013-04-25 07:40:00,
2013-04-25 00:45:00,42.6,34.2,30.08,NE,45,0.0,0.0,72,0.00,,CLR,0.00,VWS V14.01,2013-04-25 07:45:00,
2013-04-25 00:50:00,42.6,34.6,30.08,NE,45,0.0,0.0,73,0.00,,CLR,0.00,VWS V14.01,2013-04-25 07:50:00,
2013-04-25 00:55:00,42.6,34.6,30.09,NE,45,0.0,0.0,73,0.00,,CLR,0.00,VWS V14.01,2013-04-25 07:55:00,
2013-04-25 01:00:00,42.6,34.6,30.09,NE,45,0.0,0.0,73,0.00,,CLR,0.00,VWS V14.01,2013-04-25 08:00:00,
2013-04-25 01:05:00,42.6,34.6,30.09,NE,45,0.0,0.0,73,0.00,,CLR,0.00,VWS V14.01,2013-04-25 08:05:00,
2013-04-25 01:10:00,42.4,34.7,30.09,NE,45,0.0,0.0,74,0.00,,CLR,0.00,VWS V14.01,2013-04-25 08:10:00,
2013-04-25 01:15:00,42.2,34.5,30.09,NE,45,0.0,0.0,74,0.00,,CLR,0.00,VWS V14.01,2013-04-25 08:15:00,
2013-04-25 01:20:00,42.0,34.3,30.09,NE,45,0.0,0.0,74,0.00,,CLR,0.00,VWS V14.01,2013-04-25 08:20:00,
2013-04-25 01:25:00,42.0,34.3,30.09,NE,45,0.0,0.0,74,0.00,,CLR,0.00,VWS V14.01,2013-04-25 08:25:00,
2013-04-25 01:30:00,41.9,34.2,30.08,NE,45,0.0,0.0,74,0.00,,CLR,0.00,VWS V14.01,2013-04-25 08:30:00,
2013-04-25 01:35:00,41.7,34.4,30.09,NE,45,0.0,0.0,75,0.00,,CLR,0.00,VWS V14.01,2013-04-25 08:35:00,
2013-04-25 01:40:00,41.7,34.4,30.08,NE,45,0.0,0.0,75,0.00,,CLR,0.00,VWS V14.01,2013-04-25 08:40:00,
2013-04-25 01:45:00,41.5,34.2,30.09,NE,45,0.0,0.0,75,0.00,,CLR,0.00,VWS V14.01,2013-04-25 08:45:00,
2013-04-25 01:50:00,41.5,34.2,30.09,NE,45,0.0,0.0,75,0.00,,CLR,0.00,VWS V14.01,2013-04-25 08:50:00,
2013-04-25 01:55:00,41.3,34.0,30.08,NE,45,0.0,0.0,75,0.00,,CLR,0.00,VWS V14.01,2013-04-25 08:55:00,
2013-04-25 02:00:00,41.1,34.1,30.08,NE,45,0.0,0.0,76,0.00,,CLR,0.00,VWS V14.01,2013-04-25 09:00:00,
2013-04-25 02:05:00,41.1,34.1,30.08,NE,45,0.0,0.0,76,0.00,,CLR,0.00,VWS V14.01,2013-04-25 09:05:00,
2013-04-25 02:10:00,41.1,34.1,30.08,NE,45,0.0,0.0,76,0.00,,CLR,0.00,VWS V14.01,2013-04-25 09:10:00,
2013-04-25 02:15:00,41.1,34.5,30.08,NE,45,0.0,0.0,77,0.00,,CLR,0.00,VWS V14.01,2013-04-25 09:15:00,
2013-04-25 02:20:00,41.0,34.3,30.08,NE,45,0.0,0.0,77,0.00,,CLR,0.00,VWS V14.01,2013-04-25 09:20:00,
2013-04-25 02:25:00,40.8,34.2,30.08,NE,45,0.0,0.0,77,0.00,,CLR,0.00,VWS V14.01,2013-04-25 09:25:00,
2013-04-25 02:30:00,40.8,34.2,30.08,NE,45,0.0,0.0,77,0.00,,CLR,0.00,VWS V14.01,2013-04-25 09:30:00,
2013-04-25 02:35:00,40.8,34.2,30.08,NE,45,0.0,0.0,77,0.00,,CLR,0.00,VWS V14.01,2013-04-25 09:35:00,
2013-04-25 02:40:00,40.6,34.0,30.08,NE,45,0.0,0.0,77,0.00,,CLR,0.00,VWS V14.01,2013-04-25 09:40:00,
2013-04-25 02:45:00,40.6,34.0,30.08,NE,45,0.0,0.0,77,0.00,,CLR,0.00,VWS V14.01,2013-04-25 09:45:00,
2013-04-25 02:50:00,40.4,33.8,30.08,NE,45,0.0,0.0,77,0.00,,CLR,0.00,VWS V14.01,2013-04-25 09:50:00,
2013-04-25 02:55:00,40.2,33.9,30.08,NE,45,0.0,0.0,78,0.00,,CLR,0.00,VWS V14.01,2013-04-25 09:55:00,
2013-04-25 03:00:00,40.2,33.9,30.08,NE,45,0.0,0.0,78,0.00,,CLR,0.00,VWS V14.01,2013-04-25 10:00:00,
2013-04-25 03:05:00,40.2,33.9,30.08,NE,45,0.0,0.0,78,0.00,,CLR,0.00,VWS V14.01,2013-04-25 10:05:00,
2013-04-25 03:10:00,40.2,33.9,30.08,NE,45,0.0,0.0,78,0.00,,CLR,0.00,VWS V14.01,2013-04-25 10:10:00,
2013-04-25 03:15:00,40.2,34.2,30.08,NE,45,0.0,0.0,79,0.00,,CLR,0.00,VWS V14.01,2013-04-25 10:15:00,
2013-04-25 03:20:00,40.1,34.1,30.08,NE,45,0.0,0.0,79,0.00,,CLR,0.00,VWS V14.01,2013-04-25 10:20:00,
2013-04-25 03:25:00,39.9,33.9,30.08,NE,45,0.0,0.0,79,0.00,,CLR,0.00,VWS V14.01,2013-04-25 10:25:00,
2013-04-25 03:30:00,39.9,33.9,30.08,NE,45,0.0,0.0,79,0.00,,CLR,0.00,VWS V14.01,2013-04-25 10:30:00,
2013-04-25 03:35:00,39.9,33.9,30.08,NE,45,0.0,0.0,79,0.00,,CLR,0.00,VWS V14.01,2013-04-25 10:35:00,
2013-04-25 03:40:00,39.7,33.7,30.08,NE,45,0.0,0.0,79,0.00,,CLR,0.00,VWS V14.01,2013-04-25 10:40:00,
2013-04-25 03:45:00,39.5,33.5,30.08,NE,45,0.0,0.0,79,0.00,,CLR,0.00,VWS V14.01,2013-04-25 10:45:00,
2013-04-25 03:50:00,39.3,33.3,30.08,NE,45,0.0,0.0,79,0.00,,CLR,0.00,VWS V14.01,2013-04-25 10:50:00,
2013-04-25 03:55:00,39.3,33.3,30.08,NE,45,0.0,0.0,79,0.00,,CLR,0.00,VWS V14.01,2013-04-25 10:55:00,
2013-04-25 04:00:00,39.3,33.3,30.08,NE,45,0.0,0.0,79,0.00,,CLR,0.00,VWS V14.01,2013-04-25 11:00:00,
2013-04-25 04:05:00,39.0,33.0,30.08,NE,45,0.0,0.0,79,0.00,,CLR,0.00,VWS V14.01,2013-04-25 11:05:00,
2013-04-25 04:10:00,39.0,33.0,30.08,NE,45,0.0,0.0,79,0.00,,CLR,0.00,VWS V14.01,2013-04-25 11:10:00,
2013-04-25 04:15:00,39.0,33.0,30.08,NE,45,0.0,0.0,79,0.00,,CLR,0.00,VWS V14.01,2013-04-25 11:15:00,
2013-04-25 04:20:00,39.0,33.4,30.08,NE,45,0.0,0.0,80,0.00,,CLR,0.00,VWS V14.01,2013-04-25 11:20:00,
2013-04-25 04:25:00,38.8,33.2,30.08,NE,45,0.0,0.0,80,0.00,,CLR,0.00,VWS V14.01,2013-04-25 11:25:00,
2013-04-25 04:30:00,38.8,33.2,30.08,NE,45,0.0,0.0,80,0.00,,CLR,0.00,VWS V14.01,2013-04-25 11:30:00,
2013-04-25 04:35:00,38.8,33.2,30.07,NE,45,0.0,0.0,80,0.00,,CLR,0.00,VWS V14.01,2013-04-25 11:35:00,
2013-04-25 04:40:00,38.8,33.2,30.08,NE,45,0.0,0.0,80,0.00,,CLR,0.00,VWS V14.01,2013-04-25 11:40:00,
2013-04-25 04:45:00,38.4,32.8,30.07,NE,45,0.0,0.0,80,0.00,,CLR,0.00,VWS V14.01,2013-04-25 11:45:00,
2013-04-25 04:50:00,38.4,32.8,30.08,NE,45,0.0,0.0,80,0.00,,CLR,0.00,VWS V14.01,2013-04-25 11:50:00,
2013-04-25 04:55:00,38.4,32.8,30.07,NE,45,0.0,0.0,80,0.00,,CLR,0.00,VWS V14.01,2013-04-25 11:55:00,
2013-04-25 05:00:00,38.4,32.8,30.07,NE,45,0.0,0.0,80,0.00,,CLR,0.00,VWS V14.01,2013-04-25 12:00:00,
2013-04-25 05:06:00,38.4,32.8,30.07,NE,45,0.0,0.0,80,0.00,,CLR,0.00,VWS V14.01,2013-04-25 12:06:00,
2013-04-25 05:11:00,38.3,32.7,30.08,NE,45,0.0,0.0,80,0.00,,CLR,0.00,VWS V14.01,2013-04-25 12:11:00,
2013-04-25 05:16:00,38.3,32.7,30.07,NE,45,0.0,0.0,80,0.00,,CLR,0.00,VWS V14.01,2013-04-25 12:16:00,
2013-04-25 05:21:00,38.1,32.5,30.07,NE,45,0.0,0.0,80,0.00,,CLR,0.00,VWS V14.01,2013-04-25 12:21:00,
2013-04-25 05:26:00,37.9,32.3,30.07,NE,45,0.0,0.0,80,0.00,,CLR,0.00,VWS V14.01,2013-04-25 12:26:00,
2013-04-25 05:31:00,37.9,32.3,30.07,NE,45,0.0,0.0,80,0.00,,CLR,0.00,VWS V14.01,2013-04-25 12:31:00,
2013-04-25 05:36:00,37.9,32.3,30.07,NE,45,0.0,0.0,80,0.00,,CLR,0.00,VWS V14.01,2013-04-25 12:36:00,
2013-04-25 05:41:00,37.9,32.6,30.08,NE,45,0.0,0.0,81,0.00,,CLR,0.00,VWS V14.01,2013-04-25 12:41:00,
2013-04-25 05:46:00,37.9,32.6,30.08,NE,45,0.0,0.0,81,0.00,,CLR,0.00,VWS V14.01,2013-04-25 12:46:00,
2013-04-25 05:51:00,37.9,32.6,30.08,NE,45,0.0,0.0,81,0.00,,CLR,0.00,VWS V14.01,2013-04-25 12:51:00,
2013-04-25 05:56:00,37.9,32.6,30.08,NE,45,0.0,0.0,81,0.00,,CLR,0.00,VWS V14.01,2013-04-25 12:56:00,
2013-04-25 06:01:00,37.9,32.6,30.08,NE,45,0.0,0.0,81,0.00,,CLR,0.00,VWS V14.01,2013-04-25 13:01:00,
2013-04-25 06:06:00,37.9,32.6,30.08,NE,45,0.0,0.0,81,0.00,,CLR,0.00,VWS V14.01,2013-04-25 13:06:00,
2013-04-25 06:11:00,37.9,32.9,30.07,NE,45,0.0,0.0,82,0.00,,CLR,0.00,VWS V14.01,2013-04-25 13:11:00,
2013-04-25 06:16:00,37.9,32.9,30.07,NE,45,0.0,0.0,82,0.00,,CLR,0.00,VWS V14.01,2013-04-25 13:16:00,
2013-04-25 06:21:00,37.9,32.9,30.07,NE,45,0.0,0.0,82,0.00,,CLR,0.00,VWS V14.01,2013-04-25 13:21:00,
2013-04-25 06:26:00,37.9,32.9,30.08,NE,45,0.0,0.0,82,0.00,,CLR,0.00,VWS V14.01,2013-04-25 13:26:00,
2013-04-25 06:31:00,37.9,32.9,30.08,NE,45,0.0,0.0,82,0.00,,CLR,0.00,VWS V14.01,2013-04-25 13:31:00,
2013-04-25 06:36:00,37.9,32.9,30.08,NE,45,0.0,0.0,82,0.00,,CLR,0.00,VWS V14.01,2013-04-25 13:36:00,
2013-04-25 06:41:00,37.9,32.9,30.08,NE,45,0.0,0.0,82,0.00,,CLR,0.00,VWS V14.01,2013-04-25 13:41:00,
2013-04-25 06:46:00,37.9,32.9,30.08,NE,45,0.0,0.0,82,0.00,,CLR,0.00,VWS V14.01,2013-04-25 13:46:00,
2013-04-25 06:51:00,38.1,33.1,30.08,NE,45,0.0,0.0,82,0.00,,CLR,0.00,VWS V14.01,2013-04-25 13:51:00,
2013-04-25 06:56:00,38.3,33.3,30.08,NE,45,0.0,0.0,82,0.00,,CLR,0.00,VWS V14.01,2013-04-25 13:56:00,
2013-04-25 07:01:00,38.3,33.3,30.08,NE,45,0.0,0.0,82,0.00,,CLR,0.00,VWS V14.01,2013-04-25 14:01:00,
2013-04-25 07:06:00,38.4,33.4,30.08,NE,45,0.0,0.0,82,0.00,,CLR,0.00,VWS V14.01,2013-04-25 14:06:00,
2013-04-25 07:11:00,38.4,33.4,30.08,NE,45,0.0,0.0,82,0.00,,CLR,0.00,VWS V14.01,2013-04-25 14:11:00,
2013-04-25 07:16:00,38.8,33.8,30.08,NE,45,0.0,0.0,82,0.00,,CLR,0.00,VWS V14.01,2013-04-25 14:16:00,
2013-04-25 07:21:00,39.0,34.0,30.08,NE,45,0.0,0.0,82,0.00,,CLR,0.00,VWS V14.01,2013-04-25 14:21:00,
2013-04-25 07:27:00,39.3,34.3,30.08,NE,45,0.0,0.0,82,0.00,,CLR,0.00,VWS V14.01,2013-04-25 14:27:00,
2013-04-25 07:32:00,39.7,35.0,30.08,NE,45,0.0,0.0,83,0.00,,CLR,0.00,VWS V14.01,2013-04-25 14:32:00,
2013-04-25 07:37:00,40.1,35.4,30.09,NE,45,0.0,0.0,83,0.00,,CLR,0.00,VWS V14.01,2013-04-25 14:37:00,
2013-04-25 07:42:00,40.6,35.5,30.09,NE,45,0.0,0.0,82,0.00,,CLR,0.00,VWS V14.01,2013-04-25 14:42:00,
2013-04-25 07:47:00,41.0,35.9,30.08,NE,45,0.0,0.0,82,0.00,,CLR,0.00,VWS V14.01,2013-04-25 14:47:00,
2013-04-25 07:52:00,41.7,36.6,30.09,NE,45,0.0,0.0,82,0.00,,CLR,0.00,VWS V14.01,2013-04-25 14:52:00,
2013-04-25 07:57:00,42.0,36.9,30.09,NE,45,0.0,0.0,82,0.00,,CLR,0.00,VWS V14.01,2013-04-25 14:57:00,
2013-04-25 08:02:00,42.6,37.5,30.10,NE,45,0.0,0.0,82,0.00,,CLR,0.00,VWS V14.01,2013-04-25 15:02:00,
2013-04-25 08:07:00,43.5,38.4,30.09,NE,45,0.0,0.0,82,0.00,,CLR,0.00,VWS V14.01,2013-04-25 15:07:00,
2013-04-25 08:12:00,43.8,38.7,30.09,NE,45,0.0,0.0,82,0.00,,CLR,0.00,VWS V14.01,2013-04-25 15:12:00,
2013-04-25 08:17:00,44.9,39.8,30.10,NE,45,0.0,0.0,82,0.00,,CLR,0.00,VWS V14.01,2013-04-25 15:17:00,
2013-04-25 08:22:00,45.6,40.1,30.10,NE,45,0.0,0.0,81,0.00,,CLR,0.00,VWS V14.01,2013-04-25 15:22:00,
2013-04-25 08:27:00,46.2,40.7,30.10,NE,45,0.0,0.0,81,0.00,,CLR,0.00,VWS V14.01,2013-04-25 15:27:00,
2013-04-25 08:32:00,47.3,41.8,30.10,NE,45,0.0,0.0,81,0.00,,CLR,0.00,VWS V14.01,2013-04-25 15:32:00,
2013-04-25 08:37:00,48.2,42.7,30.09,NE,45,0.0,0.0,81,0.00,,CLR,0.00,VWS V14.01,2013-04-25 15:37:00,
2013-04-25 08:42:00,49.2,43.3,30.09,NE,45,0.0,0.0,80,0.00,,CLR,0.00,VWS V14.01,2013-04-25 15:42:00,
2013-04-25 08:47:00,50.1,44.2,30.09,NE,45,0.0,0.0,80,0.00,,CLR,0.00,VWS V14.01,2013-04-25 15:47:00,
2013-04-25 08:52:00,50.7,44.4,30.09,NE,45,0.0,0.0,79,0.00,,CLR,0.00,VWS V14.01,2013-04-25 15:52:00,
2013-04-25 08:57:00,51.8,44.8,30.09,ENE,68,0.0,0.0,77,0.00,,CLR,0.00,VWS V14.01,2013-04-25 15:57:00,
2013-04-25 09:02:00,52.5,45.2,30.09,ENE,68,0.0,0.0,76,0.00,,CLR,0.00,VWS V14.01,2013-04-25 16:02:00,
2013-04-25 09:07:00,53.4,45.7,30.09,ENE,68,0.0,0.0,75,0.00,,CLR,0.00,VWS V14.01,2013-04-25 16:07:00,
2013-04-25 09:12:00,54.3,45.8,30.09,SE,135,0.0,0.0,73,0.00,,CLR,0.00,VWS V14.01,2013-04-25 16:12:00,
2013-04-25 09:17:00,55.0,45.8,30.09,SE,135,0.0,0.0,71,0.00,,CLR,0.00,VWS V14.01,2013-04-25 16:17:00,
2013-04-25 09:22:00,55.5,45.9,30.09,SE,135,0.0,0.0,70,0.00,,CLR,0.00,VWS V14.01,2013-04-25 16:22:00,
2013-04-25 09:27:00,56.4,46.0,30.09,SE,135,0.0,0.0,68,0.00,,CLR,0.00,VWS V14.01,2013-04-25 16:27:00,
2013-04-25 09:32:00,57.0,46.2,30.10,SE,135,0.0,0.0,67,0.00,,CLR,0.00,VWS V14.01,2013-04-25 16:32:00,
2013-04-25 09:37:00,57.3,46.5,30.10,ENE,68,0.0,0.0,67,0.00,,CLR,0.00,VWS V14.01,2013-04-25 16:37:00,
2013-04-25 09:43:00,57.9,46.2,30.10,ENE,68,0.0,0.0,65,0.00,,CLR,0.00,VWS V14.01,2013-04-25 16:43:00,
2013-04-25 09:48:00,58.2,46.1,30.10,ENE,68,0.0,0.0,64,0.00,,CLR,0.00,VWS V14.01,2013-04-25 16:48:00,
2013-04-25 09:53:00,58.8,45.4,30.10,ENE,68,0.0,0.0,61,0.00,,CLR,0.00,VWS V14.01,2013-04-25 16:53:00,
2013-04-25 09:58:00,58.8,45.8,30.10,ENE,68,0.0,0.0,62,0.00,,CLR,0.00,VWS V14.01,2013-04-25 16:58:00,
2013-04-25 10:03:00,59.5,46.5,30.10,ENE,68,0.0,0.0,62,0.00,,CLR,0.00,VWS V14.01,2013-04-25 17:03:00,
2013-04-25 10:08:00,59.9,46.4,30.10,ENE,68,0.0,0.0,61,0.00,,CLR,0.00,VWS V14.01,2013-04-25 17:08:00,
2013-04-25 10:13:00,60.2,45.8,30.10,ENE,68,0.0,0.0,59,0.00,,CLR,0.00,VWS V14.01,2013-04-25 17:13:00,
2013-04-25 10:18:00,60.4,46.0,30.11,ENE,68,0.0,0.0,59,0.00,,CLR,0.00,VWS V14.01,2013-04-25 17:18:00,
2013-04-25 10:23:00,60.9,46.0,30.11,NE,45,0.0,0.0,58,0.00,,CLR,0.00,VWS V14.01,2013-04-25 17:23:00,
2013-04-25 10:28:00,61.5,46.1,30.11,SE,135,0.0,0.0,57,0.00,,CLR,0.00,VWS V14.01,2013-04-25 17:28:00,
2013-04-25 10:33:00,61.7,45.9,30.11,NE,45,0.0,0.0,56,0.00,,CLR,0.00,VWS V14.01,2013-04-25 17:33:00,
2013-04-25 10:38:00,62.4,46.0,30.11,NE,45,0.0,0.0,55,0.00,,CLR,0.00,VWS V14.01,2013-04-25 17:38:00,
2013-04-25 10:43:00,62.4,46.0,30.11,NE,45,0.0,0.0,55,0.00,,CLR,0.00,VWS V14.01,2013-04-25 17:43:00,
2013-04-25 10:48:00,63.1,46.7,30.11,NE,45,0.0,0.0,55,0.00,,CLR,0.00,VWS V14.01,2013-04-25 17:48:00,
2013-04-25 10:53:00,63.3,46.9,30.11,NE,45,0.0,0.0,55,0.00,,CLR,0.00,VWS V14.01,2013-04-25 17:53:00,
2013-04-25 10:58:00,63.5,47.1,30.11,NE,45,0.0,0.0,55,0.00,,CLR,0.00,VWS V14.01,2013-04-25 17:58:00,
2013-04-25 11:03:00,63.5,46.6,30.11,NE,45,0.0,0.0,54,0.00,,CLR,0.00,VWS V14.01,2013-04-25 18:03:00,
2013-04-25 11:08:00,63.6,46.2,30.11,NE,45,0.0,0.0,53,0.00,,CLR,0.00,VWS V14.01,2013-04-25 18:08:00,
2013-04-25 11:13:00,64.0,46.0,30.11,West,270,0.0,0.0,52,0.00,,CLR,0.00,VWS V14.01,2013-04-25 18:13:00,
2013-04-25 11:18:00,64.0,46.0,30.11,West,270,0.0,0.0,52,0.00,,CLR,0.00,VWS V14.01,2013-04-25 18:18:00,
2013-04-25 11:23:00,64.7,46.7,30.11,WSW,248,0.0,0.0,52,0.00,,CLR,0.00,VWS V14.01,2013-04-25 18:23:00,
2013-04-25 11:28:00,65.3,46.7,30.11,NNE,22,0.0,0.0,51,0.00,,CLR,0.00,VWS V14.01,2013-04-25 18:28:00,
2013-04-25 11:33:00,65.4,45.8,30.11,NNE,22,0.0,0.0,49,0.00,,CLR,0.00,VWS V14.01,2013-04-25 18:33:00,
2013-04-25 11:39:00,65.8,46.1,30.11,NNE,22,0.0,0.0,49,0.00,,CLR,0.00,VWS V14.01,2013-04-25 18:39:00,
2013-04-25 11:44:00,66.0,45.8,30.11,SSW,202,0.0,0.0,48,0.00,,CLR,0.00,VWS V14.01,2013-04-25 18:44:00,
2013-04-25 11:49:00,66.3,46.0,30.11,SSW,202,0.0,0.0,48,0.00,,CLR,0.00,VWS V14.01,2013-04-25 18:49:00,
2013-04-25 11:54:00,66.5,45.7,30.11,SSW,202,0.0,0.0,47,0.00,,CLR,0.00,VWS V14.01,2013-04-25 18:54:00,
2013-04-25 11:59:00,66.7,45.3,30.11,NE,45,0.0,0.0,46,0.00,,CLR,0.00,VWS V14.01,2013-04-25 18:59:00,
2013-04-25 12:04:00,66.9,46.0,30.11,NE,45,0.0,0.0,47,0.00,,CLR,0.00,VWS V14.01,2013-04-25 19:04:00,
2013-04-25 12:09:00,67.2,45.7,30.11,NE,45,0.0,0.0,46,0.00,,CLR,0.00,VWS V14.01,2013-04-25 19:09:00,
2013-04-25 12:14:00,67.8,46.9,30.11,NE,45,0.0,0.0,47,0.00,,CLR,0.00,VWS V14.01,2013-04-25 19:14:00,
2013-04-25 12:19:00,68.5,47.5,30.11,South,180,0.0,0.0,47,0.00,,CLR,0.00,VWS V14.01,2013-04-25 19:19:00,
2013-04-25 12:24:00,68.7,46.5,30.11,ESE,112,0.0,0.0,45,0.00,,CLR,0.00,VWS V14.01,2013-04-25 19:24:00,
2013-04-25 12:29:00,69.0,46.8,30.11,SSW,202,0.0,0.0,45,0.00,,CLR,0.00,VWS V14.01,2013-04-25 19:29:00,
2013-04-25 12:34:00,69.0,46.8,30.11,SSW,202,0.0,0.0,45,0.00,,CLR,0.00,VWS V14.01,2013-04-25 19:34:00,
2013-04-25 12:39:00,69.4,47.2,30.11,North,0,0.0,0.0,45,0.00,,CLR,0.00,VWS V14.01,2013-04-25 19:39:00,
2013-04-25 12:44:00,69.9,47.6,30.10,NE,45,0.0,0.0,45,0.00,,CLR,0.00,VWS V14.01,2013-04-25 19:44:00,
2013-04-25 12:49:00,70.5,47.6,30.10,NE,45,0.0,0.0,44,0.00,,CLR,0.00,VWS V14.01,2013-04-25 19:49:00,
2013-04-25 12:54:00,70.8,48.4,30.11,NE,45,0.0,0.0,45,0.00,,CLR,0.00,VWS V14.01,2013-04-25 19:54:00,
2013-04-25 12:59:00,71.4,48.4,30.10,North,0,0.0,0.0,44,0.00,,CLR,0.00,VWS V14.01,2013-04-25 19:59:00,
2013-04-25 13:04:00,71.6,47.3,30.10,South,180,0.0,0.0,42,0.00,,CLR,0.00,VWS V14.01,2013-04-25 20:04:00,
2013-04-25 13:09:00,71.7,47.4,30.11,South,180,0.0,0.0,42,0.00,,CLR,0.00,VWS V14.01,2013-04-25 20:09:00,
2013-04-25 13:14:00,72.1,47.8,30.11,ESE,112,0.0,0.0,42,0.00,,CLR,0.00,VWS V14.01,2013-04-25 20:14:00,
2013-04-25 13:19:00,72.5,48.1,30.11,East,90,0.0,0.0,42,0.00,,CLR,0.00,VWS V14.01,2013-04-25 20:19:00,
2013-04-25 13:24:00,72.6,47.6,30.11,SSE,158,0.0,0.0,41,0.00,,CLR,0.00,VWS V14.01,2013-04-25 20:24:00,
2013-04-25 13:29:00,73.2,48.8,30.10,NNE,22,0.0,0.0,42,0.00,,CLR,0.00,VWS V14.01,2013-04-25 20:29:00,
2013-04-25 13:34:00,73.9,48.7,30.10,NE,45,0.0,0.0,41,0.00,,CLR,0.00,VWS V14.01,2013-04-25 20:34:00,
2013-04-25 13:39:00,74.1,48.9,30.10,NNE,22,0.0,0.0,41,0.00,,CLR,0.00,VWS V14.01,2013-04-25 20:39:00,
2013-04-25 13:44:00,74.4,49.2,30.10,SSE,158,0.0,0.0,41,0.00,,CLR,0.00,VWS V14.01,2013-04-25 20:44:00,
2013-04-25 13:49:00,74.4,49.2,30.10,East,90,0.0,0.0,41,0.00,,CLR,0.00,VWS V14.01,2013-04-25 20:49:00,
2013-04-25 13:55:00,74.8,48.9,30.10,East,90,0.0,0.0,40,0.00,,CLR,0.00,VWS V14.01,2013-04-25 20:55:00,
2013-04-25 14:00:00,78.6,50.9,30.10,SE,135,0.0,0.0,38,0.00,,CLR,0.00,VWS V14.01,2013-04-25 21:00:00,
2013-04-25 14:05:00,84.0,53.4,30.10,SSE,158,0.0,0.0,35,0.00,,CLR,0.00,VWS V14.01,2013-04-25 21:05:00,
2013-04-25 14:10:00,88.1,54.6,30.10,SSE,158,0.0,0.0,32,0.00,,CLR,0.00,VWS V14.01,2013-04-25 21:10:00,
2013-04-25 14:15:00,91.2,55.5,30.10,ESE,112,0.0,0.0,30,0.00,,CLR,0.00,VWS V14.01,2013-04-25 21:15:00,
2013-04-25 14:20:00,93.0,55.1,30.10,NE,45,0.0,0.0,28,0.00,,CLR,0.00,VWS V14.01,2013-04-25 21:20:00,
2013-04-25 14:25:00,94.6,55.5,30.09,NE,45,0.0,0.0,27,0.00,,CLR,0.00,VWS V14.01,2013-04-25 21:25:00,
2013-04-25 14:30:00,95.5,56.2,30.09,NE,45,0.0,0.0,27,0.00,,CLR,0.00,VWS V14.01,2013-04-25 21:30:00,
2013-04-25 14:35:00,92.6,53.8,30.09,East,90,0.0,0.0,27,0.00,,CLR,0.00,VWS V14.01,2013-04-25 21:35:00,
2013-04-25 14:40:00,87.0,50.9,30.10,NE,45,0.0,0.0,29,0.00,,CLR,0.00,VWS V14.01,2013-04-25 21:40:00,
2013-04-25 14:45:00,80.9,48.3,30.10,NE,45,0.0,0.0,32,0.00,,CLR,0.00,VWS V14.01,2013-04-25 21:45:00,
2013-04-25 14:50:00,78.2,46.8,30.10,NNE,22,0.0,0.0,33,0.00,,CLR,0.00,VWS V14.01,2013-04-25 21:50:00,
2013-04-25 14:55:00,75.9,46.3,30.10,NE,45,0.0,0.0,35,0.00,,CLR,0.00,VWS V14.01,2013-04-25 21:55:00,
2013-04-25 15:00:00,73.5,44.9,30.10,WSW,248,0.0,0.0,36,0.00,,CLR,0.00,VWS V14.01,2013-04-25 22:00:00,
2013-04-25 15:05:00,71.7,44.8,30.10,ENE,68,0.0,0.0,38,0.00,,CLR,0.00,VWS V14.01,2013-04-25 22:05:00,
2013-04-25 15:10:00,71.2,45.0,30.10,NE,45,0.0,0.0,39,0.00,,CLR,0.00,VWS V14.01,2013-04-25 22:10:00,
2013-04-25 15:15:00,70.7,45.2,30.09,SSE,158,0.0,0.0,40,0.00,,CLR,0.00,VWS V14.01,2013-04-25 22:15:00,
2013-04-25 15:20:00,70.1,44.7,30.10,ENE,68,0.0,0.0,40,0.00,,CLR,0.00,VWS V14.01,2013-04-25 22:20:00,
2013-04-25 15:25:00,69.9,44.5,30.10,NE,45,0.0,0.0,40,0.00,,CLR,0.00,VWS V14.01,2013-04-25 22:25:00,
2013-04-25 15:30:00,70.5,45.7,30.09,ESE,112,0.0,0.0,41,0.00,,CLR,0.00,VWS V14.01,2013-04-25 22:30:00,
2013-04-25 15:35:00,71.0,45.5,30.10,NE,45,0.0,0.0,40,0.00,,CLR,0.00,VWS V14.01,2013-04-25 22:35:00,
2013-04-25 15:40:00,70.8,45.3,30.09,NE,45,0.0,0.0,40,0.00,,CLR,0.00,VWS V14.01,2013-04-25 22:40:00,
2013-04-25 15:45:00,71.4,45.2,30.09,NE,45,0.0,0.0,39,0.00,,CLR,0.00,VWS V14.01,2013-04-25 22:45:00,
2013-04-25 15:50:00,73.0,46.6,30.09,NE,45,0.0,0.0,39,0.00,,CLR,0.00,VWS V14.01,2013-04-25 22:50:00,
2013-04-25 15:55:00,74.3,47.1,30.09,East,90,0.0,0.0,38,0.00,,CLR,0.00,VWS V14.01,2013-04-25 22:55:00,
2013-04-25 16:00:00,75.7,47.6,30.09,NNE,22,0.0,0.0,37,0.00,,CLR,0.00,VWS V14.01,2013-04-25 23:00:00,
2013-04-25 16:05:00,75.7,46.9,30.09,North,0,0.0,0.0,36,0.00,,CLR,0.00,VWS V14.01,2013-04-25 23:05:00,
2013-04-25 16:10:00,74.8,46.1,30.09,SE,135,0.0,0.0,36,0.00,,CLR,0.00,VWS V14.01,2013-04-25 23:10:00,
2013-04-25 16:16:00,73.5,45.7,30.09,SE,135,0.0,0.0,37,0.00,,CLR,0.00,VWS V14.01,2013-04-25 23:16:00,
2013-04-25 16:21:00,72.1,45.1,30.09,SE,135,0.0,0.0,38,0.00,,CLR,0.00,VWS V14.01,2013-04-25 23:21:00,
2013-04-25 16:26:00,71.2,45.0,30.09,SE,135,0.0,0.0,39,0.00,,CLR,0.00,VWS V14.01,2013-04-25 23:26:00,
2013-04-25 16:31:00,70.3,44.2,30.09,NE,45,0.0,0.0,39,0.00,,CLR,0.00,VWS V14.01,2013-04-25 23:31:00,
2013-04-25 16:36:00,69.4,44.1,30.09,NE,45,0.0,0.0,40,0.00,,CLR,0.00,VWS V14.01,2013-04-25 23:36:00,
2013-04-25 16:41:00,68.9,44.2,30.09,NE,45,0.0,0.0,41,0.00,,CLR,0.00,VWS V14.01,2013-04-25 23:41:00,
2013-04-25 16:46:00,68.3,44.3,30.09,SSE,158,0.0,0.0,42,0.00,,CLR,0.00,VWS V14.01,2013-04-25 23:46:00,
2013-04-25 16:51:00,67.8,43.9,30.09,SE,135,0.0,0.0,42,0.00,,CLR,0.00,VWS V14.01,2013-04-25 23:51:00,
2013-04-25 16:56:00,67.8,44.5,30.09,NNE,22,0.0,0.0,43,0.00,,CLR,0.00,VWS V14.01,2013-04-25 23:56:00,
2013-04-25 17:01:00,67.6,44.3,30.09,NE,45,0.0,0.0,43,0.00,,CLR,0.00,VWS V14.01,2013-04-26 00:01:00,
2013-04-25 17:06:00,67.2,44.0,30.09,NE,45,0.0,0.0,43,0.00,,CLR,0.00,VWS V14.01,2013-04-26 00:06:00,
2013-04-25 17:11:00,67.2,44.0,30.09,NE,45,0.0,0.0,43,0.00,,CLR,0.00,VWS V14.01,2013-04-26 00:11:00,
2013-04-25 17:16:00,66.9,43.7,30.09,NE,45,0.0,0.0,43,0.00,,CLR,0.00,VWS V14.01,2013-04-26 00:16:00,
2013-04-25 17:21:00,66.7,43.5,30.09,NE,45,0.0,0.0,43,0.00,,CLR,0.00,VWS V14.01,2013-04-26 00:21:00,
2013-04-25 17:26:00,66.5,43.9,30.09,NE,45,0.0,0.0,44,0.00,,CLR,0.00,VWS V14.01,2013-04-26 00:26:00,
2013-04-25 17:31:00,66.3,43.8,30.09,NE,45,0.0,0.0,44,0.00,,CLR,0.00,VWS V14.01,2013-04-26 00:31:00,
2013-04-25 17:36:00,66.3,44.3,30.09,NNE,22,0.0,0.0,45,0.00,,CLR,0.00,VWS V14.01,2013-04-26 00:36:00,
2013-04-25 17:41:00,66.0,44.1,30.09,NNE,22,0.0,0.0,45,0.00,,CLR,0.00,VWS V14.01,2013-04-26 00:41:00,
2013-04-25 17:46:00,66.0,44.1,30.09,NNE,22,0.0,0.0,45,0.00,,CLR,0.00,VWS V14.01,2013-04-26 00:46:00,
2013-04-25 17:51:00,65.8,43.9,30.09,NNE,22,0.0,0.0,45,0.00,,CLR,0.00,VWS V14.01,2013-04-26 00:51:00,
2013-04-25 17:56:00,65.8,43.9,30.09,NNE,22,0.0,0.0,45,0.00,,CLR,0.00,VWS V14.01,2013-04-26 00:56:00,
2013-04-25 18:01:00,65.8,43.9,30.09,NNE,22,0.0,0.0,45,0.00,,CLR,0.00,VWS V14.01,2013-04-26 01:01:00,
2013-04-25 18:06:00,65.4,44.1,30.09,NNE,22,0.0,0.0,46,0.00,,CLR,0.00,VWS V14.01,2013-04-26 01:06:00,
2013-04-25 18:11:00,65.3,44.0,30.09,NNE,22,0.0,0.0,46,0.00,,CLR,0.00,VWS V14.01,2013-04-26 01:11:00,
2013-04-25 18:16:00,65.1,43.8,30.09,NNE,22,0.0,0.0,46,0.00,,CLR,0.00,VWS V14.01,2013-04-26 01:16:00,
2013-04-25 18:21:00,64.9,43.7,30.09,NNE,22,0.0,0.0,46,0.00,,CLR,0.00,VWS V14.01,2013-04-26 01:21:00,
2013-04-25 18:26:00,64.7,44.0,30.09,NNE,22,0.0,0.0,47,0.00,,CLR,0.00,VWS V14.01,2013-04-26 01:26:00,
2013-04-25 18:31:00,64.7,44.0,30.09,NNE,22,0.0,0.0,47,0.00,,CLR,0.00,VWS V14.01,2013-04-26 01:31:00,
2013-04-25 18:37:00,64.5,43.8,30.09,NNE,22,0.0,0.0,47,0.00,,CLR,0.00,VWS V14.01,2013-04-26 01:37:00,
2013-04-25 18:42:00,64.2,43.6,30.09,NNE,22,0.0,0.0,47,0.00,,CLR,0.00,VWS V14.01,2013-04-26 01:42:00,
2013-04-25 18:47:00,64.2,44.1,30.10,NE,45,0.0,0.0,48,0.00,,CLR,0.00,VWS V14.01,2013-04-26 01:47:00,
2013-04-25 18:52:00,64.2,44.1,30.09,NE,45,0.0,0.0,48,0.00,,CLR,0.00,VWS V14.01,2013-04-26 01:52:00,
2013-04-25 18:57:00,64.2,43.6,30.09,ESE,112,0.0,0.0,47,0.00,,CLR,0.00,VWS V14.01,2013-04-26 01:57:00,
2013-04-25 19:02:00,64.2,43.0,30.09,ESE,112,0.0,0.0,46,0.00,,CLR,0.00,VWS V14.01,2013-04-26 02:02:00,
2013-04-25 19:07:00,64.0,42.8,30.10,SE,135,0.0,0.0,46,0.00,,CLR,0.00,VWS V14.01,2013-04-26 02:07:00,
2013-04-25 19:12:00,64.0,42.8,30.10,SE,135,0.0,0.0,46,0.00,,CLR,0.00,VWS V14.01,2013-04-26 02:12:00,
2013-04-25 19:17:00,63.6,42.5,30.10,SSE,158,0.0,0.0,46,0.00,,CLR,0.00,VWS V14.01,2013-04-26 02:17:00,
2013-04-25 19:22:00,63.6,41.9,30.10,SSE,158,0.0,0.0,45,0.00,,CLR,0.00,VWS V14.01,2013-04-26 02:22:00,
2013-04-25 19:27:00,63.5,41.8,30.10,SSE,158,0.0,0.0,45,0.00,,CLR,0.00,VWS V14.01,2013-04-26 02:27:00,
2013-04-25 19:33:00,63.3,41.6,30.10,SSE,158,0.0,0.0,45,0.00,,CLR,0.00,VWS V14.01,2013-04-26 02:33:00,
2013-04-25 19:38:00,62.9,41.3,30.10,SSE,158,0.0,0.0,45,0.00,,CLR,0.00,VWS V14.01,2013-04-26 02:38:00,
2013-04-25 19:43:00,62.7,41.6,30.10,SSE,158,0.0,0.0,46,0.00,,CLR,0.00,VWS V14.01,2013-04-26 02:43:00,
2013-04-25 19:48:00,62.2,41.7,30.11,SSE,158,0.0,0.0,47,0.00,,CLR,0.00,VWS V14.01,2013-04-26 02:48:00,
2013-04-25 19:53:00,61.8,41.9,30.11,SSE,158,0.0,0.0,48,0.00,,CLR,0.00,VWS V14.01,2013-04-26 02:53:00,
2013-04-25 19:59:00,61.5,42.7,30.11,NE,45,0.0,0.0,50,0.00,,CLR,0.00,VWS V14.01,2013-04-26 02:59:00,
2013-04-25 20:04:00,60.9,42.2,30.11,NE,45,0.0,0.0,50,0.00,,CLR,0.00,VWS V14.01,2013-04-26 03:04:00,
2013-04-25 20:09:00,60.6,42.4,30.11,NE,45,0.0,0.0,51,0.00,,CLR,0.00,VWS V14.01,2013-04-26 03:09:00,
2013-04-25 20:14:00,60.0,41.8,30.12,NE,45,0.0,0.0,51,0.00,,CLR,0.00,VWS V14.01,2013-04-26 03:14:00,
2013-04-25 20:19:00,59.7,41.6,30.12,ENE,68,0.0,0.0,51,0.00,,CLR,0.00,VWS V14.01,2013-04-26 03:19:00,
2013-04-25 20:24:00,59.1,41.5,30.12,ENE,68,0.0,0.0,52,0.00,,CLR,0.00,VWS V14.01,2013-04-26 03:24:00,
2013-04-25 20:29:00,58.8,41.2,30.12,ENE,68,0.0,0.0,52,0.00,,CLR,0.00,VWS V14.01,2013-04-26 03:29:00,
2013-04-25 20:34:00,58.6,41.5,30.13,ENE,68,0.0,0.0,53,0.00,,CLR,0.00,VWS V14.01,2013-04-26 03:34:00,
2013-04-25 20:39:00,57.9,40.9,30.13,ENE,68,0.0,0.0,53,0.00,,CLR,0.00,VWS V14.01,2013-04-26 03:39:00,
2013-04-25 20:44:00,57.7,40.7,30.13,ENE,68,0.0,0.0,53,0.00,,CLR,0.00,VWS V14.01,2013-04-26 03:44:00,
2013-04-25 20:49:00,57.5,41.0,30.13,ENE,68,0.0,0.0,54,0.00,,CLR,0.00,VWS V14.01,2013-04-26 03:49:00,
2013-04-25 20:54:00,57.0,40.5,30.13,ENE,68,0.0,0.0,54,0.00,,CLR,0.00,VWS V14.01,2013-04-26 03:54:00,
2013-04-25 20:59:00,56.8,40.3,30.13,ENE,68,0.0,0.0,54,0.00,,CLR,0.00,VWS V14.01,2013-04-26 03:59:00,
2013-04-25 21:01:00,56.8,40.3,30.13,ENE,68,0.0,0.0,54,0.00,,CLR,0.00,VWS V14.01,2013-04-26 04:01:00,
2013-04-25 21:03:00,56.6,40.2,30.14,ENE,68,0.0,0.0,54,0.00,,CLR,0.00,VWS V14.01,2013-04-26 04:03:00,
2013-04-25 21:04:00,56.4,40.5,30.14,ENE,68,0.0,0.0,55,0.00,,CLR,0.00,VWS V14.01,2013-04-26 04:04:00,
2013-04-25 21:07:00,56.4,40.5,30.14,ENE,68,0.0,0.0,55,0.00,,CLR,0.00,VWS V14.01,2013-04-26 04:07:00,
2013-04-25 21:12:00,55.9,40.5,30.14,ENE,68,0.0,0.0,56,0.00,,CLR,0.00,VWS V14.01,2013-04-26 04:12:00,
2013-04-25 21:17:00,55.7,40.3,30.14,ENE,68,0.0,0.0,56,0.00,,CLR,0.00,VWS V14.01,2013-04-26 04:17:00,
2013-04-25 21:22:00,55.5,40.5,30.14,ENE,68,0.0,0.0,57,0.00,,CLR,0.00,VWS V14.01,2013-04-26 04:22:00,
2013-04-25 21:27:00,55.2,40.2,30.14,ENE,68,0.0,0.0,57,0.00,,CLR,0.00,VWS V14.01,2013-04-26 04:27:00,
2013-04-25 21:32:00,54.8,40.3,30.14,ENE,68,0.0,0.0,58,0.00,,CLR,0.00,VWS V14.01,2013-04-26 04:32:00,
2013-04-25 21:37:00,54.6,40.1,30.15,ENE,68,0.0,0.0,58,0.00,,CLR,0.00,VWS V14.01,2013-04-26 04:37:00,
2013-04-25 21:42:00,54.1,40.1,30.15,ENE,68,0.0,0.0,59,0.00,,CLR,0.00,VWS V14.01,2013-04-26 04:42:00,
2013-04-25 21:47:00,53.9,39.9,30.15,ENE,68,0.0,0.0,59,0.00,,CLR,0.00,VWS V14.01,2013-04-26 04:47:00,
2013-04-25 21:52:00,53.7,39.7,30.15,ENE,68,0.0,0.0,59,0.00,,CLR,0.00,VWS V14.01,2013-04-26 04:52:00,
2013-04-25 21:57:00,53.4,39.5,30.15,ENE,68,0.0,0.0,59,0.00,,CLR,0.00,VWS V14.01,2013-04-26 04:57:00,
2013-04-25 22:02:00,53.2,39.7,30.15,ENE,68,0.0,0.0,60,0.00,,CLR,0.00,VWS V14.01,2013-04-26 05:02:00,
2013-04-25 22:07:00,52.8,39.7,30.15,ENE,68,0.0,0.0,61,0.00,,CLR,0.00,VWS V14.01,2013-04-26 05:07:00,
2013-04-25 22:12:00,52.7,39.6,30.16,ENE,68,0.0,0.0,61,0.00,,CLR,0.00,VWS V14.01,2013-04-26 05:12:00,
2013-04-25 22:17:00,52.3,39.7,30.16,ENE,68,0.0,0.0,62,0.00,,CLR,0.00,VWS V14.01,2013-04-26 05:17:00,
2013-04-25 22:22:00,52.1,39.9,30.16,ENE,68,0.0,0.0,63,0.00,,CLR,0.00,VWS V14.01,2013-04-26 05:22:00,
2013-04-25 22:27:00,51.9,39.7,30.16,ENE,68,0.0,0.0,63,0.00,,CLR,0.00,VWS V14.01,2013-04-26 05:27:00,
2013-04-25 22:32:00,51.6,39.4,30.16,ENE,68,0.0,0.0,63,0.00,,CLR,0.00,VWS V14.01,2013-04-26 05:32:00,
2013-04-25 22:37:00,51.4,39.7,30.16,ENE,68,0.0,0.0,64,0.00,,CLR,0.00,VWS V14.01,2013-04-26 05:37:00,
2013-04-25 22:42:00,51.2,39.8,30.16,ENE,68,0.0,0.0,65,0.00,,CLR,0.00,VWS V14.01,2013-04-26 05:42:00,
2013-04-25 22:47:00,51.0,39.7,30.16,ENE,68,0.0,0.0,65,0.00,,CLR,0.00,VWS V14.01,2013-04-26 05:47:00,
2013-04-25 22:53:00,50.7,39.8,30.16,ENE,68,0.0,0.0,66,0.00,,CLR,0.00,VWS V14.01,2013-04-26 05:53:00,
2013-04-25 22:58:00,50.5,39.6,30.16,ENE,68,0.0,0.0,66,0.00,,CLR,0.00,VWS V14.01,2013-04-26 05:58:00,
2013-04-25 23:03:00,50.5,40.0,30.16,ENE,68,0.0,0.0,67,0.00,,CLR,0.00,VWS V14.01,2013-04-26 06:03:00,
2013-04-25 23:08:00,50.1,39.6,30.16,ENE,68,0.0,0.0,67,0.00,,CLR,0.00,VWS V14.01,2013-04-26 06:08:00,
2013-04-25 23:13:00,50.0,39.5,30.16,ENE,68,0.0,0.0,67,0.00,,CLR,0.00,VWS V14.01,2013-04-26 06:13:00,
2013-04-25 23:18:00,49.8,39.7,30.16,ENE,68,0.0,0.0,68,0.00,,CLR,0.00,VWS V14.01,2013-04-26 06:18:00,
2013-04-25 23:23:00,49.6,39.5,30.16,ENE,68,0.0,0.0,68,0.00,,CLR,0.00,VWS V14.01,2013-04-26 06:23:00,
2013-04-25 23:28:00,49.4,39.7,30.16,ENE,68,0.0,0.0,69,0.00,,CLR,0.00,VWS V14.01,2013-04-26 06:28:00,
2013-04-25 23:33:00,49.2,39.5,30.16,ENE,68,0.0,0.0,69,0.00,,CLR,0.00,VWS V14.01,2013-04-26 06:33:00,
2013-04-25 23:38:00,49.1,39.8,30.16,ENE,68,0.0,0.0,70,0.00,,CLR,0.00,VWS V14.01,2013-04-26 06:38:00,
2013-04-25 23:43:00,48.9,39.6,30.17,ENE,68,0.0,0.0,70,0.00,,CLR,0.00,VWS V14.01,2013-04-26 06:43:00,
2013-04-25 23:48:00,48.7,39.4,30.17,ENE,68,0.0,0.0,70,0.00,,CLR,0.00,VWS V14.01,2013-04-26 06:48:00,
2013-04-25 23:53:00,48.3,39.3,30.16,ENE,68,0.0,0.0,71,0.00,,CLR,0.00,VWS V14.01,2013-04-26 06:53:00,
2013-04-25 23:58:00,48.2,39.2,30.16,ENE,68,0.0,0.0,71,0.00,,CLR,0.00,VWS V14.01,2013-04-26 06:58:00,